Aérodrome :
LOGIN :

S'inscrire | Disclaimer

   EN    FR    IT 

 










Légende :    VFR   VFR Marginal   IFR   IFR Intensif   IFR Très Intensif
Visi : 
Plafond : 
>= 8 km
>= 3000ft
5 à 8 km
1000 à 3000 ft
1500m à 5 km
500 à 1000 ft
800 à 1500m
200 à 500 ft
< 800m
< 200 ft
Symboles :   Orages  Brouillard  Fortes neiges  Fortes précipitations  Vent > 20 kt
SIGMETs :   Divers  Orages  Givrage  Turbulence  Onde Orograph.  Cendres Volcan.







- Altitude de l'aérodrome : 124 ft
- Code IATA : AVN
- Voir les cartes d'approche


LFMV - Avignon Caumont

METARs EXPIRÉS :
  • 241430Z AUTO 34004KT 260V060 CAVOK 36/17 Q1014 NOSIG
  • 241400Z AUTO 01008KT 340V050 CAVOK 36/16 Q1014 BECMG 24015KT
  • 241330Z AUTO 36007KT 320V020 CAVOK 36/16 Q1014 BECMG 24015KT
  • 241300Z AUTO VRB06KT CAVOK 36/16 Q1015 NOSIG
  • 241230Z AUTO 32007KT 280V360 CAVOK 35/16 Q1015 NOSIG
  • 241200Z AUTO VRB05KT CAVOK 34/17 Q1015 BECMG 24015KT

Prévision TAF périmée.
ATIS : +33 4 90 84 32 84
Pas de NOTAMs connus pour ce terrain.



MET'MAP, la Météo Aéronautique d'un coup d'oeil ! - Copyright ORBIFLY Décembre 2007 - Disclaimer

ORBIFLY MET'MAP TEAM :

Programmation & Développement : Alexandra Zaïnal
Conception & Développement : Baudouin d'Aumeries
Co-Programmation & Développement : Marc-Olivier Méhu
Soutien technique & logistique : Manuel Goepfert

Contact : metmap@orbifly.com




SOURCES & CREDITS :

   NOAA